Time;durP1;ratioP1;P1;durP2;ratioP2;P2;SDS_P1;SDS_P2;PMS_P1;PMS_P2;Temp;Humidity;BMP_temperature;BMP_pressure;BME280_temperature;BME280_humidity;BME280_pressure;Samples;Min_cycle;Max_cycle;Signal;HPM_P1;HPM_P2
2022/06/27 00:01:30;;;;;;;14.63;7.20;;;;;;;;;;4982041;28;97139;-73
2022/06/27 00:03:56;;;;;;;11.43;7.25;;;;;;;;;;4970693;28;97636;-73
2022/06/27 00:06:23;;;;;;;11.82;6.20;;;;;;;;;;4971464;28;97229;-72
2022/06/27 00:08:50;;;;;;;9.55;6.68;;;;;;;;;;4974970;28;97272;-71
2022/06/27 00:11:17;;;;;;;12.50;6.30;;;;;;;;;;4984410;28;95525;-73
2022/06/27 00:13:45;;;;;;;12.10;6.35;;;;;;;;;;4973584;28;96418;-71
2022/06/27 00:16:12;;;;;;;11.02;6.47;;;;;;;;;;4973166;28;97386;-72
2022/06/27 00:18:58;;;;;;;12.00;6.93;;;;;;;;;;4974349;28;96022;-72
2022/06/27 00:21:25;;;;;;;9.70;6.15;;;;;;;;;;4976141;28;96812;-71
2022/06/27 00:23:51;;;;;;;11.70;6.03;;;;;;;;;;4978212;28;96459;-71
2022/06/27 00:26:18;;;;;;;11.75;5.75;;;;;;;;;;4983661;28;95405;-72
2022/06/27 00:28:44;;;;;;;10.95;6.22;;;;;;;;;;4975861;28;97659;-72
2022/06/27 00:31:10;;;;;;;9.00;5.82;;;;;;;;;;4975551;28;95732;-71
2022/06/27 00:33:37;;;;;;;10.05;5.88;;;;;;;;;;4983228;28;97080;-71
2022/06/27 00:36:03;;;;;;;9.40;6.20;;;;;;;;;;4967028;28;96583;-72
2022/06/27 00:38:30;;;;;;;9.68;6.00;;;;;;;;;;4968187;28;96316;-72
2022/06/27 00:40:57;;;;;;;10.23;5.80;;;;;;;;;;4974362;28;96339;-72
2022/06/27 00:43:24;;;;;;;12.27;5.63;;;;;;;;;;4978962;28;97772;-72
2022/06/27 00:45:50;;;;;;;9.60;5.40;;;;;;;;;;4988450;28;95692;-73
2022/06/27 00:48:17;;;;;;;10.27;5.70;;;;;;;;;;4983944;28;97334;-72
2022/06/27 00:50:43;;;;;;;14.02;6.38;;;;;;;;;;4979352;28;95491;-72
2022/06/27 00:53:12;;;;;;;10.77;5.60;;;;;;;;;;4969305;28;96782;-72
2022/06/27 00:55:39;;;;;;;9.85;5.93;;;;;;;;;;4983721;28;97347;-71
2022/06/27 00:58:05;;;;;;;10.25;6.18;;;;;;;;;;4984525;28;96455;-73
2022/06/27 01:00:32;;;;;;;9.35;5.93;;;;;;;;;;4980997;28;95767;-71
2022/06/27 01:03:02;;;;;;;11.82;6.97;;;;;;;;;;4982774;28;97252;-72
2022/06/27 01:05:29;;;;;;;14.70;5.97;;;;;;;;;;4976261;28;95660;-71
2022/06/27 01:07:56;;;;;;;8.43;5.88;;;;;;;;;;4974317;28;95850;-72
2022/06/27 01:10:22;;;;;;;10.45;6.38;;;;;;;;;;4969980;28;95374;-72
2022/06/27 01:12:49;;;;;;;10.20;6.43;;;;;;;;;;4969010;28;97279;-73
2022/06/27 01:15:16;;;;;;;14.02;6.20;;;;;;;;;;4982161;28;97584;-72
2022/06/27 01:17:42;;;;;;;15.88;6.68;;;;;;;;;;4985777;28;95671;-72
2022/06/27 01:20:09;;;;;;;10.32;6.63;;;;;;;;;;4968757;28;96745;-72
2022/06/27 01:22:35;;;;;;;12.23;6.47;;;;;;;;;;4989823;28;96366;-71
2022/06/27 01:25:03;;;;;;;10.27;6.85;;;;;;;;;;4976544;28;96171;-71
2022/06/27 01:27:29;;;;;;;12.32;7.05;;;;;;;;;;4988837;28;96606;-72
2022/06/27 01:29:56;;;;;;;15.38;6.75;;;;;;;;;;4994535;28;97545;-73
2022/06/27 01:32:23;;;;;;;21.00;8.00;;;;;;;;;;4981085;28;97426;-72
2022/06/27 01:34:49;;;;;;;14.68;7.85;;;;;;;;;;4969547;28;97351;-72
2022/06/27 01:37:16;;;;;;;11.13;7.70;;;;;;;;;;4982682;28;96112;-71
2022/06/27 01:39:43;;;;;;;10.73;7.75;;;;;;;;;;4987203;28;96715;-71
2022/06/27 01:42:09;;;;;;;20.73;8.80;;;;;;;;;;4975574;28;97354;-71
2022/06/27 01:44:39;;;;;;;14.13;7.55;;;;;;;;;;4986720;28;96613;-71
2022/06/27 01:47:08;;;;;;;13.75;7.68;;;;;;;;;;4986088;28;96868;-71
2022/06/27 01:49:36;;;;;;;15.82;7.60;;;;;;;;;;4972307;28;97239;-72
2022/06/27 01:52:03;;;;;;;13.00;8.13;;;;;;;;;;4980941;28;95344;-71
2022/06/27 01:54:32;;;;;;;13.07;8.30;;;;;;;;;;4980535;28;95916;-71
2022/06/27 01:56:58;;;;;;;13.25;8.80;;;;;;;;;;4986012;28;96034;-72
2022/06/27 01:59:27;;;;;;;11.48;8.05;;;;;;;;;;4973035;28;96062;-72
2022/06/27 02:01:54;;;;;;;15.90;7.90;;;;;;;;;;4981183;28;97467;-72
2022/06/27 02:04:21;;;;;;;11.25;8.30;;;;;;;;;;4969207;28;95379;-73
2022/06/27 02:06:47;;;;;;;14.98;8.52;;;;;;;;;;4977107;28;96711;-72
2022/06/27 02:09:15;;;;;;;14.93;8.32;;;;;;;;;;4973151;28;97176;-72
2022/06/27 02:11:43;;;;;;;11.82;7.97;;;;;;;;;;4990854;28;95745;-72
2022/06/27 02:14:09;;;;;;;13.10;8.18;;;;;;;;;;4994301;28;96746;-73
2022/06/27 02:16:38;;;;;;;12.43;8.27;;;;;;;;;;4984179;28;96953;-71
2022/06/27 02:19:05;;;;;;;17.15;7.75;;;;;;;;;;4973308;28;96722;-72
2022/06/27 02:21:32;;;;;;;30.90;8.45;;;;;;;;;;4985819;28;97342;-72
2022/06/27 02:23:58;;;;;;;11.55;8.02;;;;;;;;;;4985169;28;96663;-72
2022/06/27 02:26:25;;;;;;;16.95;8.27;;;;;;;;;;4986033;28;95855;-72
2022/06/27 02:28:53;;;;;;;17.27;8.00;;;;;;;;;;4970458;28;97274;-71
2022/06/27 02:31:23;;;;;;;12.93;8.15;;;;;;;;;;4980282;28;95429;-71
2022/06/27 02:33:50;;;;;;;13.27;8.18;;;;;;;;;;4979819;28;97171;-71
2022/06/27 02:36:17;;;;;;;13.25;7.93;;;;;;;;;;4982931;28;97308;-72
2022/06/27 02:38:45;;;;;;;13.80;8.98;;;;;;;;;;4974884;28;99509;-71
2022/06/27 02:41:15;;;;;;;14.48;7.80;;;;;;;;;;4977726;28;97238;-71
2022/06/27 02:43:44;;;;;;;18.10;7.63;;;;;;;;;;4984416;28;95634;-71
2022/06/27 02:46:11;;;;;;;14.77;8.40;;;;;;;;;;4975340;28;96848;-72
2022/06/27 02:48:39;;;;;;;11.77;7.47;;;;;;;;;;4980399;28;97571;-72
2022/06/27 02:51:07;;;;;;;11.20;7.28;;;;;;;;;;4982180;28;96508;-71
2022/06/27 02:53:35;;;;;;;11.88;7.97;;;;;;;;;;4979611;28;96788;-72
2022/06/27 02:56:03;;;;;;;21.45;8.18;;;;;;;;;;4983288;28;96121;-71
2022/06/27 02:58:35;;;;;;;16.55;8.15;;;;;;;;;;4969772;28;97120;-72
2022/06/27 03:01:02;;;;;;;13.40;7.70;;;;;;;;;;4961428;28;96799;-71
2022/06/27 03:03:31;;;;;;;12.02;7.90;;;;;;;;;;4977118;28;95393;-70
2022/06/27 03:05:59;;;;;;;13.35;7.65;;;;;;;;;;4978919;28;97073;-72
2022/06/27 03:08:35;;;;;;;14.40;8.10;;;;;;;;;;4979719;28;97515;-72
2022/06/27 03:11:01;;;;;;;18.38;8.90;;;;;;;;;;4965412;28;95626;-73
2022/06/27 03:13:28;;;;;;;12.48;8.18;;;;;;;;;;4984817;28;96171;-72
2022/06/27 03:15:54;;;;;;;12.75;8.50;;;;;;;;;;4979593;28;97525;-72
2022/06/27 03:18:20;;;;;;;12.52;8.30;;;;;;;;;;4979978;28;96296;-71
2022/06/27 03:20:47;;;;;;;15.85;8.32;;;;;;;;;;4982265;28;97278;-72
2022/06/27 03:23:15;;;;;;;20.80;8.70;;;;;;;;;;4982500;28;95525;-72
2022/06/27 03:25:42;;;;;;;14.63;8.43;;;;;;;;;;4972012;28;96966;-72
2022/06/27 03:28:08;;;;;;;13.38;8.00;;;;;;;;;;4981349;28;96423;-71
2022/06/27 03:30:35;;;;;;;11.65;8.27;;;;;;;;;;4979809;28;97047;-71
2022/06/27 03:33:05;;;;;;;12.35;7.82;;;;;;;;;;4980353;28;96621;-72
2022/06/27 03:35:31;;;;;;;24.75;8.68;;;;;;;;;;4981105;28;98696;-71
2022/06/27 03:37:58;;;;;;;13.25;8.05;;;;;;;;;;4983567;28;95347;-72
2022/06/27 03:40:24;;;;;;;11.80;8.32;;;;;;;;;;4988583;28;95818;-72
2022/06/27 03:42:53;;;;;;;16.08;8.60;;;;;;;;;;4982533;28;95949;-71
2022/06/27 03:45:20;;;;;;;15.10;8.40;;;;;;;;;;4981589;28;96797;-72
2022/06/27 03:47:50;;;;;;;17.83;8.68;;;;;;;;;;4978861;28;97719;-71
2022/06/27 03:50:17;;;;;;;19.90;8.90;;;;;;;;;;4984870;28;95382;-71
2022/06/27 03:52:50;;;;;;;12.75;7.35;;;;;;;;;;4983782;28;96910;-71
2022/06/27 03:55:17;;;;;;;15.68;7.88;;;;;;;;;;4975638;28;96878;-71
2022/06/27 03:57:48;;;;;;;15.80;8.02;;;;;;;;;;4981563;28;95814;-72
2022/06/27 04:00:19;;;;;;;12.25;7.35;;;;;;;;;;4978007;28;97139;-71
2022/06/27 04:02:46;;;;;;;15.48;7.70;;;;;;;;;;4981040;28;97301;-71
2022/06/27 04:05:12;;;;;;;12.57;8.05;;;;;;;;;;4981363;28;97145;-71
2022/06/27 04:07:39;;;;;;;13.88;7.80;;;;;;;;;;4977555;28;96205;-71
2022/06/27 04:10:06;;;;;;;10.38;6.90;;;;;;;;;;4968748;28;95875;-72
2022/06/27 20:29:26;;;;;;;10.15;5.43;;;;;;;;;;5105192;27;95718;-72
2022/06/27 20:31:52;;;;;;;8.10;3.80;;;;;;;;;;5080449;27;97655;-72
2022/06/27 20:34:19;;;;;;;8.40;4.05;;;;;;;;;;5083601;27;95338;-71
2022/06/27 20:36:45;;;;;;;5.97;3.35;;;;;;;;;;5078040;27;95746;-71
2022/06/27 20:39:12;;;;;;;6.85;4.00;;;;;;;;;;5083246;27;97344;-72
2022/06/27 20:41:39;;;;;;;7.47;3.60;;;;;;;;;;5081859;27;96103;-72
2022/06/27 20:44:05;;;;;;;6.85;3.70;;;;;;;;;;5084857;27;96676;-72
2022/06/27 20:46:34;;;;;;;11.25;3.65;;;;;;;;;;5097780;27;97312;-71
2022/06/27 20:49:02;;;;;;;6.70;3.88;;;;;;;;;;5097031;27;95276;-71
2022/06/27 20:51:29;;;;;;;6.53;3.47;;;;;;;;;;5084793;27;97438;-71
2022/06/27 20:53:55;;;;;;;5.88;3.70;;;;;;;;;;5085144;27;95341;-70
2022/06/27 20:56:22;;;;;;;12.60;3.83;;;;;;;;;;5074080;27;97013;-70
2022/06/27 20:58:49;;;;;;;15.23;4.07;;;;;;;;;;5088804;27;96387;-73
2022/06/27 21:01:16;;;;;;;10.77;3.85;;;;;;;;;;5080820;27;95897;-72
2022/06/27 21:03:42;;;;;;;7.80;3.33;;;;;;;;;;5074222;27;96653;-70
2022/06/27 21:06:09;;;;;;;9.40;3.72;;;;;;;;;;5084024;27;97348;-71
2022/06/27 21:14:05;;;;;;;6.70;3.92;;;;;;;;;;5076026;27;95438;-71
2022/06/27 21:16:32;;;;;;;9.35;4.32;;;;;;;;;;5081803;27;97079;-72
2022/06/27 21:18:58;;;;;;;17.08;3.72;;;;;;;;;;5076607;27;97128;-70
2022/06/27 21:21:25;;;;;;;23.35;4.75;;;;;;;;;;5083911;27;95327;-71
2022/06/27 21:23:51;;;;;;;6.70;3.88;;;;;;;;;;5084793;27;96790;-70
2022/06/27 21:26:17;;;;;;;6.57;3.88;;;;;;;;;;5081733;27;97326;-72
2022/06/27 21:28:44;;;;;;;12.75;4.35;;;;;;;;;;5081038;27;96124;-72
2022/06/27 21:31:10;;;;;;;6.00;3.70;;;;;;;;;;5083148;27;96744;-71
2022/06/27 21:33:36;;;;;;;9.18;4.07;;;;;;;;;;5087435;27;96664;-71
2022/06/27 21:36:03;;;;;;;5.72;3.72;;;;;;;;;;5061319;27;96896;-71
2022/06/27 21:38:37;;;;;;;9.27;4.25;;;;;;;;;;5081844;27;97740;-71
2022/06/27 21:41:04;;;;;;;5.70;3.67;;;;;;;;;;5066792;27;95736;-72
2022/06/27 21:43:31;;;;;;;8.07;3.75;;;;;;;;;;5070733;27;96765;-71
2022/06/27 21:45:57;;;;;;;11.77;4.00;;;;;;;;;;5079727;27;97378;-71
2022/06/27 21:48:24;;;;;;;5.03;3.70;;;;;;;;;;5077800;27;95376;-72
2022/06/27 21:50:54;;;;;;;7.47;3.67;;;;;;;;;;5070935;27;98754;-72
2022/06/27 21:53:24;;;;;;;8.32;4.15;;;;;;;;;;5070213;27;96577;-72
2022/06/27 21:55:55;;;;;;;13.07;4.22;;;;;;;;;;5070344;27;95764;-73
2022/06/27 21:58:23;;;;;;;6.65;4.07;;;;;;;;;;5062807;27;99657;-72
2022/06/27 22:00:51;;;;;;;6.00;4.28;;;;;;;;;;5071441;27;95779;-71
2022/06/27 22:03:25;;;;;;;7.90;4.10;;;;;;;;;;5070535;27;97474;-72
2022/06/27 22:05:52;;;;;;;7.40;3.78;;;;;;;;;;5070334;27;97515;-72
2022/06/27 22:08:18;;;;;;;6.60;4.40;;;;;;;;;;5070180;27;95888;-70
2022/06/27 22:10:47;;;;;;;8.52;4.22;;;;;;;;;;5071087;27;96886;-71
2022/06/27 22:13:14;;;;;;;7.55;4.40;;;;;;;;;;5069465;27;97366;-71
2022/06/27 22:15:42;;;;;;;6.75;4.20;;;;;;;;;;5070552;27;95407;-72
2022/06/27 22:18:10;;;;;;;7.07;3.80;;;;;;;;;;5083254;27;96596;-72
2022/06/27 22:20:38;;;;;;;8.88;3.90;;;;;;;;;;5070244;27;95393;-71
2022/06/27 22:23:04;;;;;;;9.27;4.03;;;;;;;;;;5071652;27;96823;-71
2022/06/27 22:25:30;;;;;;;8.77;3.67;;;;;;;;;;5071933;27;97206;-71
2022/06/27 22:27:57;;;;;;;13.25;4.03;;;;;;;;;;5070599;27;95341;-71
2022/06/27 22:30:23;;;;;;;10.10;4.07;;;;;;;;;;5068773;27;97163;-71
2022/06/27 22:32:49;;;;;;;6.90;4.13;;;;;;;;;;5071784;27;97283;-71
2022/06/27 22:35:16;;;;;;;6.93;3.67;;;;;;;;;;5074867;27;95197;-71
2022/06/27 22:37:42;;;;;;;6.55;3.85;;;;;;;;;;5071890;27;97065;-71
2022/06/27 22:40:09;;;;;;;11.50;4.22;;;;;;;;;;5073469;27;95404;-71
2022/06/27 22:42:36;;;;;;;6.15;3.70;;;;;;;;;;5071779;27;96857;-71
2022/06/27 22:45:03;;;;;;;5.63;3.47;;;;;;;;;;5071071;27;97331;-71
2022/06/27 22:47:30;;;;;;;6.43;3.95;;;;;;;;;;5074142;27;95883;-71
2022/06/27 22:49:56;;;;;;;8.85;3.53;;;;;;;;;;5067434;27;96850;-71
2022/06/27 22:52:23;;;;;;;9.48;4.10;;;;;;;;;;5067643;27;97852;-72
2022/06/27 22:54:50;;;;;;;11.25;3.50;;;;;;;;;;5068240;27;95300;-73
2022/06/27 22:57:17;;;;;;;8.32;3.88;;;;;;;;;;5068354;27;95712;-73
2022/06/27 22:59:44;;;;;;;14.13;3.72;;;;;;;;;;5071832;27;97328;-73
2022/06/27 23:02:10;;;;;;;12.35;3.90;;;;;;;;;;5054987;27;96783;-73
2022/06/27 23:04:37;;;;;;;8.65;3.80;;;;;;;;;;5065172;27;97239;-73
2022/06/27 23:07:04;;;;;;;11.85;3.72;;;;;;;;;;5068032;27;95243;-73
2022/06/27 23:09:30;;;;;;;7.50;3.92;;;;;;;;;;5068546;27;96521;-73
2022/06/27 23:11:57;;;;;;;18.20;4.07;;;;;;;;;;5069991;27;97364;-72
2022/06/27 23:14:23;;;;;;;12.65;4.05;;;;;;;;;;5067829;27;95379;-71
2022/06/27 23:16:50;;;;;;;9.85;4.53;;;;;;;;;;5069432;27;97143;-70
2022/06/27 23:19:16;;;;;;;9.00;4.45;;;;;;;;;;5065746;27;97235;-71
2022/06/27 23:21:42;;;;;;;10.48;4.72;;;;;;;;;;5074430;27;95385;-71
2022/06/27 23:24:09;;;;;;;8.73;4.25;;;;;;;;;;5069345;27;97394;-73
2022/06/27 23:26:36;;;;;;;6.55;4.20;;;;;;;;;;5068827;27;95348;-72
2022/06/27 23:29:03;;;;;;;7.88;4.80;;;;;;;;;;5068595;27;96736;-73
2022/06/27 23:31:29;;;;;;;6.90;5.07;;;;;;;;;;5067947;27;97555;-73
2022/06/27 23:33:55;;;;;;;8.13;5.10;;;;;;;;;;5069964;27;95386;-73
2022/06/27 23:36:22;;;;;;;8.27;5.20;;;;;;;;;;5067103;27;96719;-72
2022/06/27 23:38:48;;;;;;;10.68;5.50;;;;;;;;;;5067674;27;97279;-73
2022/06/27 23:41:14;;;;;;;10.48;5.20;;;;;;;;;;5068680;27;95277;-73
2022/06/27 23:43:41;;;;;;;12.75;5.35;;;;;;;;;;5071128;27;96599;-72
2022/06/27 23:46:07;;;;;;;15.05;5.47;;;;;;;;;;5079396;27;95326;-72
2022/06/27 23:48:33;;;;;;;10.18;6.05;;;;;;;;;;5067852;27;96918;-73
2022/06/27 23:51:00;;;;;;;10.05;6.13;;;;;;;;;;5049865;27;96913;-73
2022/06/27 23:53:26;;;;;;;11.10;5.65;;;;;;;;;;5066532;27;96446;-73
2022/06/27 23:55:53;;;;;;;8.55;6.35;;;;;;;;;;5068759;27;96702;-73
2022/06/27 23:58:19;;;;;;;9.55;6.25;;;;;;;;;;5067070;27;96725;-73
